sensor_id;sensor_type;location;lat;lon;timestamp;P1;durP1;ratioP1;P2;durP2;ratioP2
18752;SDS011;9505;50.882;5.350;2023-06-22T00:00:29;38.72;;;7.28;;
18752;SDS011;9505;50.882;5.350;2023-06-22T00:02:55;46.72;;;8.07;;
18752;SDS011;9505;50.882;5.350;2023-06-22T00:05:20;42.17;;;7.45;;
18752;SDS011;9505;50.882;5.350;2023-06-22T00:07:46;39.90;;;7.57;;
18752;SDS011;9505;50.882;5.350;2023-06-22T00:10:11;39.15;;;7.72;;
18752;SDS011;9505;50.882;5.350;2023-06-22T00:12:37;38.58;;;6.60;;
18752;SDS011;9505;50.882;5.350;2023-06-22T00:15:03;39.10;;;7.38;;
18752;SDS011;9505;50.882;5.350;2023-06-22T00:17:29;38.85;;;7.82;;
18752;SDS011;9505;50.882;5.350;2023-06-22T00:19:54;44.35;;;7.70;;
18752;SDS011;9505;50.882;5.350;2023-06-22T00:22:20;35.83;;;7.45;;
18752;SDS011;9505;50.882;5.350;2023-06-22T00:24:53;48.97;;;7.78;;
18752;SDS011;9505;50.882;5.350;2023-06-22T00:27:20;39.42;;;7.82;;
18752;SDS011;9505;50.882;5.350;2023-06-22T00:29:45;41.20;;;7.47;;
18752;SDS011;9505;50.882;5.350;2023-06-22T00:32:11;40.78;;;7.53;;
18752;SDS011;9505;50.882;5.350;2023-06-22T00:34:36;35.42;;;7.60;;
18752;SDS011;9505;50.882;5.350;2023-06-22T00:37:02;40.50;;;7.85;;
18752;SDS011;9505;50.882;5.350;2023-06-22T00:39:28;42.55;;;7.85;;
18752;SDS011;9505;50.882;5.350;2023-06-22T00:41:53;45.33;;;8.10;;
18752;SDS011;9505;50.882;5.350;2023-06-22T00:44:20;43.45;;;7.25;;
18752;SDS011;9505;50.882;5.350;2023-06-22T00:46:45;48.08;;;7.93;;
18752;SDS011;9505;50.882;5.350;2023-06-22T00:49:11;48.83;;;8.15;;
18752;SDS011;9505;50.882;5.350;2023-06-22T00:51:37;41.67;;;7.78;;
18752;SDS011;9505;50.882;5.350;2023-06-22T00:54:03;47.10;;;8.65;;
18752;SDS011;9505;50.882;5.350;2023-06-22T00:56:30;40.75;;;7.75;;
18752;SDS011;9505;50.882;5.350;2023-06-22T00:58:57;49.35;;;8.13;;
18752;SDS011;9505;50.882;5.350;2023-06-22T01:01:24;42.67;;;7.53;;
18752;SDS011;9505;50.882;5.350;2023-06-22T01:03:50;42.15;;;7.90;;
18752;SDS011;9505;50.882;5.350;2023-06-22T01:06:18;42.28;;;7.70;;
18752;SDS011;9505;50.882;5.350;2023-06-22T01:08:53;41.83;;;7.88;;
18752;SDS011;9505;50.882;5.350;2023-06-22T01:11:32;46.70;;;7.65;;
18752;SDS011;9505;50.882;5.350;2023-06-22T01:17:34;35.08;;;6.53;;
18752;SDS011;9505;50.882;5.350;2023-06-22T01:20:01;37.58;;;7.00;;
18752;SDS011;9505;50.882;5.350;2023-06-22T01:22:32;41.13;;;6.80;;
18752;SDS011;9505;50.882;5.350;2023-06-22T01:25:07;40.08;;;7.18;;
18752;SDS011;9505;50.882;5.350;2023-06-22T01:30:11;44.80;;;7.28;;
18752;SDS011;9505;50.882;5.350;2023-06-22T01:32:40;39.72;;;6.75;;
18752;SDS011;9505;50.882;5.350;2023-06-22T01:35:07;37.35;;;6.50;;
18752;SDS011;9505;50.882;5.350;2023-06-22T01:37:35;35.33;;;7.13;;
18752;SDS011;9505;50.882;5.350;2023-06-22T01:40:02;35.85;;;5.95;;
18752;SDS011;9505;50.882;5.350;2023-06-22T01:42:31;36.08;;;5.85;;
18752;SDS011;9505;50.882;5.350;2023-06-22T01:44:57;27.70;;;5.47;;
18752;SDS011;9505;50.882;5.350;2023-06-22T01:47:24;31.30;;;6.25;;
18752;SDS011;9505;50.882;5.350;2023-06-22T01:49:50;35.08;;;5.78;;
18752;SDS011;9505;50.882;5.350;2023-06-22T01:52:17;37.55;;;6.47;;
18752;SDS011;9505;50.882;5.350;2023-06-22T01:54:43;39.67;;;6.57;;
18752;SDS011;9505;50.882;5.350;2023-06-22T01:57:09;35.50;;;6.50;;
18752;SDS011;9505;50.882;5.350;2023-06-22T01:59:59;31.15;;;5.72;;
18752;SDS011;9505;50.882;5.350;2023-06-22T02:02:24;34.00;;;6.40;;
18752;SDS011;9505;50.882;5.350;2023-06-22T02:04:58;39.92;;;7.00;;
18752;SDS011;9505;50.882;5.350;2023-06-22T02:07:28;34.85;;;6.00;;
18752;SDS011;9505;50.882;5.350;2023-06-22T02:09:57;38.17;;;6.78;;
18752;SDS011;9505;50.882;5.350;2023-06-22T02:12:25;38.13;;;7.10;;
18752;SDS011;9505;50.882;5.350;2023-06-22T02:14:53;38.03;;;6.80;;
18752;SDS011;9505;50.882;5.350;2023-06-22T02:17:19;35.00;;;6.97;;
18752;SDS011;9505;50.882;5.350;2023-06-22T02:19:44;42.83;;;7.53;;
18752;SDS011;9505;50.882;5.350;2023-06-22T02:22:10;36.28;;;7.72;;
18752;SDS011;9505;50.882;5.350;2023-06-22T02:24:37;37.63;;;6.72;;
18752;SDS011;9505;50.882;5.350;2023-06-22T02:27:03;36.63;;;7.07;;
18752;SDS011;9505;50.882;5.350;2023-06-22T02:29:30;41.75;;;7.20;;
18752;SDS011;9505;50.882;5.350;2023-06-22T02:31:56;37.10;;;6.80;;
18752;SDS011;9505;50.882;5.350;2023-06-22T02:34:22;40.40;;;7.13;;
18752;SDS011;9505;50.882;5.350;2023-06-22T02:36:48;37.50;;;6.78;;
18752;SDS011;9505;50.882;5.350;2023-06-22T02:41:48;46.40;;;7.70;;
18752;SDS011;9505;50.882;5.350;2023-06-22T02:44:14;43.53;;;7.57;;
18752;SDS011;9505;50.882;5.350;2023-06-22T02:46:40;42.58;;;7.47;;
18752;SDS011;9505;50.882;5.350;2023-06-22T02:49:06;40.72;;;8.02;;
18752;SDS011;9505;50.882;5.350;2023-06-22T02:51:33;38.33;;;7.20;;
18752;SDS011;9505;50.882;5.350;2023-06-22T02:53:59;38.50;;;7.03;;
18752;SDS011;9505;50.882;5.350;2023-06-22T02:56:25;46.55;;;8.45;;
18752;SDS011;9505;50.882;5.350;2023-06-22T02:58:51;48.85;;;8.73;;
18752;SDS011;9505;50.882;5.350;2023-06-22T03:01:17;37.67;;;8.15;;
18752;SDS011;9505;50.882;5.350;2023-06-22T03:03:49;40.65;;;9.07;;
18752;SDS011;9505;50.882;5.350;2023-06-22T03:06:15;48.03;;;10.45;;
18752;SDS011;9505;50.882;5.350;2023-06-22T03:08:40;47.35;;;10.13;;
18752;SDS011;9505;50.882;5.350;2023-06-22T03:11:07;42.83;;;9.98;;
18752;SDS011;9505;50.882;5.350;2023-06-22T03:13:32;45.55;;;10.90;;
18752;SDS011;9505;50.882;5.350;2023-06-22T03:15:58;50.22;;;11.63;;
18752;SDS011;9505;50.882;5.350;2023-06-22T03:18:24;47.83;;;12.20;;
18752;SDS011;9505;50.882;5.350;2023-06-22T03:20:49;49.33;;;13.30;;
18752;SDS011;9505;50.882;5.350;2023-06-22T03:23:15;49.85;;;12.07;;
18752;SDS011;9505;50.882;5.350;2023-06-22T03:25:41;49.20;;;11.98;;
18752;SDS011;9505;50.882;5.350;2023-06-22T03:28:09;53.30;;;13.02;;
18752;SDS011;9505;50.882;5.350;2023-06-22T03:30:35;58.00;;;15.45;;
18752;SDS011;9505;50.882;5.350;2023-06-22T03:33:00;52.38;;;15.60;;
18752;SDS011;9505;50.882;5.350;2023-06-22T03:35:26;52.15;;;14.45;;
18752;SDS011;9505;50.882;5.350;2023-06-22T03:37:52;51.33;;;14.10;;
18752;SDS011;9505;50.882;5.350;2023-06-22T03:40:18;59.05;;;14.65;;
18752;SDS011;9505;50.882;5.350;2023-06-22T03:42:43;56.35;;;14.57;;
18752;SDS011;9505;50.882;5.350;2023-06-22T03:45:09;52.45;;;16.52;;
18752;SDS011;9505;50.882;5.350;2023-06-22T03:47:35;53.58;;;15.82;;
18752;SDS011;9505;50.882;5.350;2023-06-22T03:50:00;48.45;;;15.95;;
18752;SDS011;9505;50.882;5.350;2023-06-22T03:52:28;57.83;;;16.90;;
18752;SDS011;9505;50.882;5.350;2023-06-22T03:54:54;51.55;;;15.55;;
18752;SDS011;9505;50.882;5.350;2023-06-22T03:57:20;55.20;;;14.93;;
18752;SDS011;9505;50.882;5.350;2023-06-22T03:59:45;50.60;;;14.30;;
18752;SDS011;9505;50.882;5.350;2023-06-22T04:02:11;51.53;;;13.75;;
18752;SDS011;9505;50.882;5.350;2023-06-22T04:04:36;43.83;;;13.73;;
18752;SDS011;9505;50.882;5.350;2023-06-22T04:07:03;39.30;;;12.30;;
18752;SDS011;9505;50.882;5.350;2023-06-22T04:09:29;43.10;;;12.57;;
18752;SDS011;9505;50.882;5.350;2023-06-22T04:11:55;45.25;;;12.95;;
18752;SDS011;9505;50.882;5.350;2023-06-22T04:14:21;45.40;;;13.15;;
18752;SDS011;9505;50.882;5.350;2023-06-22T04:16:46;38.47;;;11.90;;
18752;SDS011;9505;50.882;5.350;2023-06-22T04:19:12;41.70;;;13.55;;
18752;SDS011;9505;50.882;5.350;2023-06-22T04:21:41;41.13;;;12.93;;
18752;SDS011;9505;50.882;5.350;2023-06-22T04:24:09;48.55;;;13.85;;
18752;SDS011;9505;50.882;5.350;2023-06-22T04:26:35;50.83;;;13.50;;
18752;SDS011;9505;50.882;5.350;2023-06-22T04:29:05;43.47;;;12.32;;
18752;SDS011;9505;50.882;5.350;2023-06-22T04:31:34;46.63;;;13.43;;
18752;SDS011;9505;50.882;5.350;2023-06-22T04:34:06;50.25;;;14.38;;
18752;SDS011;9505;50.882;5.350;2023-06-22T04:36:35;44.83;;;13.57;;
18752;SDS011;9505;50.882;5.350;2023-06-22T04:39:04;46.25;;;12.98;;
18752;SDS011;9505;50.882;5.350;2023-06-22T04:41:30;42.08;;;12.45;;
18752;SDS011;9505;50.882;5.350;2023-06-22T04:44:16;46.08;;;12.77;;
18752;SDS011;9505;50.882;5.350;2023-06-22T04:46:49;46.83;;;12.93;;
18752;SDS011;9505;50.882;5.350;2023-06-22T04:49:19;53.45;;;14.35;;
18752;SDS011;9505;50.882;5.350;2023-06-22T04:51:46;41.63;;;12.82;;
18752;SDS011;9505;50.882;5.350;2023-06-22T04:54:11;42.35;;;13.43;;
18752;SDS011;9505;50.882;5.350;2023-06-22T04:56:37;43.13;;;14.60;;
18752;SDS011;9505;50.882;5.350;2023-06-22T04:59:06;49.33;;;16.33;;
18752;SDS011;9505;50.882;5.350;2023-06-22T05:01:31;50.72;;;18.02;;
18752;SDS011;9505;50.882;5.350;2023-06-22T05:03:57;59.35;;;21.55;;
18752;SDS011;9505;50.882;5.350;2023-06-22T05:06:25;72.03;;;23.45;;
18752;SDS011;9505;50.882;5.350;2023-06-22T05:08:53;63.03;;;24.13;;
18752;SDS011;9505;50.882;5.350;2023-06-22T05:11:23;59.88;;;24.13;;
18752;SDS011;9505;50.882;5.350;2023-06-22T05:13:49;67.10;;;25.95;;
18752;SDS011;9505;50.882;5.350;2023-06-22T05:16:15;68.30;;;28.88;;
18752;SDS011;9505;50.882;5.350;2023-06-22T05:18:41;77.50;;;30.80;;
18752;SDS011;9505;50.882;5.350;2023-06-22T05:21:06;78.05;;;32.22;;
18752;SDS011;9505;50.882;5.350;2023-06-22T05:23:32;80.28;;;32.35;;
18752;SDS011;9505;50.882;5.350;2023-06-22T05:25:58;88.30;;;32.55;;
18752;SDS011;9505;50.882;5.350;2023-06-22T05:28:23;84.05;;;34.60;;
18752;SDS011;9505;50.882;5.350;2023-06-22T05:30:49;84.18;;;32.53;;
18752;SDS011;9505;50.882;5.350;2023-06-22T05:33:15;88.35;;;34.75;;
18752;SDS011;9505;50.882;5.350;2023-06-22T05:35:40;91.97;;;37.28;;
18752;SDS011;9505;50.882;5.350;2023-06-22T05:38:06;88.97;;;34.85;;
18752;SDS011;9505;50.882;5.350;2023-06-22T05:40:33;85.32;;;34.67;;
18752;SDS011;9505;50.882;5.350;2023-06-22T05:42:58;83.90;;;33.10;;
18752;SDS011;9505;50.882;5.350;2023-06-22T05:45:25;73.05;;;32.55;;
18752;SDS011;9505;50.882;5.350;2023-06-22T05:47:51;76.15;;;33.80;;
18752;SDS011;9505;50.882;5.350;2023-06-22T05:50:17;72.97;;;32.25;;
18752;SDS011;9505;50.882;5.350;2023-06-22T05:52:42;79.57;;;34.42;;
18752;SDS011;9505;50.882;5.350;2023-06-22T05:55:08;98.10;;;38.20;;
18752;SDS011;9505;50.882;5.350;2023-06-22T05:57:34;70.82;;;33.35;;
18752;SDS011;9505;50.882;5.350;2023-06-22T05:59:59;89.20;;;35.85;;
18752;SDS011;9505;50.882;5.350;2023-06-22T06:02:25;84.43;;;33.90;;
18752;SDS011;9505;50.882;5.350;2023-06-22T06:04:50;88.88;;;35.58;;
18752;SDS011;9505;50.882;5.350;2023-06-22T06:07:17;84.95;;;35.80;;
18752;SDS011;9505;50.882;5.350;2023-06-22T06:09:43;83.63;;;33.92;;
18752;SDS011;9505;50.882;5.350;2023-06-22T06:12:09;73.70;;;31.48;;
18752;SDS011;9505;50.882;5.350;2023-06-22T06:14:34;89.97;;;32.88;;
18752;SDS011;9505;50.882;5.350;2023-06-22T06:17:00;76.03;;;32.03;;
18752;SDS011;9505;50.882;5.350;2023-06-22T06:19:25;74.68;;;31.50;;
18752;SDS011;9505;50.882;5.350;2023-06-22T06:21:51;78.57;;;32.33;;
18752;SDS011;9505;50.882;5.350;2023-06-22T06:24:16;71.20;;;28.80;;
18752;SDS011;9505;50.882;5.350;2023-06-22T06:26:42;66.00;;;29.25;;
18752;SDS011;9505;50.882;5.350;2023-06-22T06:29:08;60.83;;;25.30;;
18752;SDS011;9505;50.882;5.350;2023-06-22T06:31:33;54.53;;;25.75;;
18752;SDS011;9505;50.882;5.350;2023-06-22T06:33:59;52.70;;;24.73;;
18752;SDS011;9505;50.882;5.350;2023-06-22T06:36:24;56.78;;;24.85;;
18752;SDS011;9505;50.882;5.350;2023-06-22T06:38:50;53.45;;;23.08;;
18752;SDS011;9505;50.882;5.350;2023-06-22T06:41:16;59.80;;;23.77;;
18752;SDS011;9505;50.882;5.350;2023-06-22T06:43:42;49.60;;;23.08;;
18752;SDS011;9505;50.882;5.350;2023-06-22T06:46:08;53.85;;;21.38;;
18752;SDS011;9505;50.882;5.350;2023-06-22T06:48:34;53.40;;;23.02;;
18752;SDS011;9505;50.882;5.350;2023-06-22T06:51:00;52.80;;;21.75;;
18752;SDS011;9505;50.882;5.350;2023-06-22T06:53:25;44.25;;;19.25;;
18752;SDS011;9505;50.882;5.350;2023-06-22T06:55:52;48.58;;;18.88;;
18752;SDS011;9505;50.882;5.350;2023-06-22T06:58:17;50.88;;;19.05;;
18752;SDS011;9505;50.882;5.350;2023-06-22T07:00:43;49.17;;;19.27;;
18752;SDS011;9505;50.882;5.350;2023-06-22T07:03:08;43.65;;;17.40;;
18752;SDS011;9505;50.882;5.350;2023-06-22T07:05:34;50.65;;;18.42;;
18752;SDS011;9505;50.882;5.350;2023-06-22T07:08:00;48.25;;;18.08;;
18752;SDS011;9505;50.882;5.350;2023-06-22T07:10:28;40.08;;;16.20;;
18752;SDS011;9505;50.882;5.350;2023-06-22T07:12:53;39.65;;;15.68;;
18752;SDS011;9505;50.882;5.350;2023-06-22T07:15:19;37.30;;;15.43;;
18752;SDS011;9505;50.882;5.350;2023-06-22T07:17:45;38.28;;;13.77;;
18752;SDS011;9505;50.882;5.350;2023-06-22T07:20:10;41.20;;;14.68;;
18752;SDS011;9505;50.882;5.350;2023-06-22T07:22:46;39.30;;;15.10;;
18752;SDS011;9505;50.882;5.350;2023-06-22T07:25:11;37.72;;;14.30;;
18752;SDS011;9505;50.882;5.350;2023-06-22T07:27:45;40.17;;;15.75;;
18752;SDS011;9505;50.882;5.350;2023-06-22T07:30:21;35.90;;;15.45;;
18752;SDS011;9505;50.882;5.350;2023-06-22T07:32:48;32.38;;;14.45;;
18752;SDS011;9505;50.882;5.350;2023-06-22T07:35:13;38.45;;;16.08;;
18752;SDS011;9505;50.882;5.350;2023-06-22T07:37:41;44.45;;;16.40;;
18752;SDS011;9505;50.882;5.350;2023-06-22T07:40:07;43.10;;;16.98;;
18752;SDS011;9505;50.882;5.350;2023-06-22T07:42:33;38.10;;;15.77;;
18752;SDS011;9505;50.882;5.350;2023-06-22T07:44:59;36.15;;;14.95;;
18752;SDS011;9505;50.882;5.350;2023-06-22T07:47:25;35.10;;;15.02;;
18752;SDS011;9505;50.882;5.350;2023-06-22T07:49:53;41.72;;;16.35;;
18752;SDS011;9505;50.882;5.350;2023-06-22T07:52:20;40.45;;;15.48;;
18752;SDS011;9505;50.882;5.350;2023-06-22T07:54:46;42.80;;;17.02;;
18752;SDS011;9505;50.882;5.350;2023-06-22T07:57:12;37.53;;;15.95;;
18752;SDS011;9505;50.882;5.350;2023-06-22T07:59:38;44.65;;;17.88;;
18752;SDS011;9505;50.882;5.350;2023-06-22T08:02:03;45.97;;;17.00;;
18752;SDS011;9505;50.882;5.350;2023-06-22T08:04:30;44.45;;;16.77;;
18752;SDS011;9505;50.882;5.350;2023-06-22T08:06:59;38.58;;;15.82;;
18752;SDS011;9505;50.882;5.350;2023-06-22T08:09:27;42.00;;;16.65;;
18752;SDS011;9505;50.882;5.350;2023-06-22T08:11:53;44.03;;;17.60;;
18752;SDS011;9505;50.882;5.350;2023-06-22T08:14:20;34.03;;;15.25;;
18752;SDS011;9505;50.882;5.350;2023-06-22T08:16:46;48.17;;;17.95;;
18752;SDS011;9505;50.882;5.350;2023-06-22T08:19:12;38.88;;;16.17;;
18752;SDS011;9505;50.882;5.350;2023-06-22T08:21:38;44.13;;;14.48;;
18752;SDS011;9505;50.882;5.350;2023-06-22T08:24:04;51.53;;;17.00;;
18752;SDS011;9505;50.882;5.350;2023-06-22T08:26:29;41.38;;;16.35;;
18752;SDS011;9505;50.882;5.350;2023-06-22T08:28:55;43.75;;;15.27;;
18752;SDS011;9505;50.882;5.350;2023-06-22T08:31:21;40.42;;;15.70;;
18752;SDS011;9505;50.882;5.350;2023-06-22T08:33:46;55.47;;;17.80;;
18752;SDS011;9505;50.882;5.350;2023-06-22T08:36:12;48.72;;;16.52;;
18752;SDS011;9505;50.882;5.350;2023-06-22T08:38:38;38.28;;;16.48;;
18752;SDS011;9505;50.882;5.350;2023-06-22T08:41:04;37.10;;;14.82;;
18752;SDS011;9505;50.882;5.350;2023-06-22T08:43:29;43.95;;;17.08;;
18752;SDS011;9505;50.882;5.350;2023-06-22T08:45:55;38.17;;;15.85;;
18752;SDS011;9505;50.882;5.350;2023-06-22T08:48:21;37.88;;;16.75;;
18752;SDS011;9505;50.882;5.350;2023-06-22T08:50:46;45.85;;;16.80;;
18752;SDS011;9505;50.882;5.350;2023-06-22T08:53:12;43.65;;;16.90;;
18752;SDS011;9505;50.882;5.350;2023-06-22T08:55:37;42.08;;;18.75;;
18752;SDS011;9505;50.882;5.350;2023-06-22T08:58:03;43.40;;;18.48;;
18752;SDS011;9505;50.882;5.350;2023-06-22T09:00:29;40.38;;;18.13;;
18752;SDS011;9505;50.882;5.350;2023-06-22T09:02:57;43.33;;;18.85;;
18752;SDS011;9505;50.882;5.350;2023-06-22T09:05:24;48.80;;;17.98;;
18752;SDS011;9505;50.882;5.350;2023-06-22T09:07:51;49.35;;;19.52;;
18752;SDS011;9505;50.882;5.350;2023-06-22T09:10:17;45.00;;;17.92;;
18752;SDS011;9505;50.882;5.350;2023-06-22T09:12:43;43.50;;;18.48;;
18752;SDS011;9505;50.882;5.350;2023-06-22T09:15:09;47.20;;;19.23;;
18752;SDS011;9505;50.882;5.350;2023-06-22T09:17:35;47.08;;;16.48;;
18752;SDS011;9505;50.882;5.350;2023-06-22T09:20:01;38.13;;;16.85;;
18752;SDS011;9505;50.882;5.350;2023-06-22T09:22:30;44.35;;;18.98;;
18752;SDS011;9505;50.882;5.350;2023-06-22T09:24:56;47.13;;;19.27;;
18752;SDS011;9505;50.882;5.350;2023-06-22T09:27:22;37.97;;;18.63;;
18752;SDS011;9505;50.882;5.350;2023-06-22T09:29:48;41.88;;;16.30;;
18752;SDS011;9505;50.882;5.350;2023-06-22T09:32:14;36.28;;;16.27;;
18752;SDS011;9505;50.882;5.350;2023-06-22T09:34:40;43.50;;;18.88;;
18752;SDS011;9505;50.882;5.350;2023-06-22T09:37:05;34.45;;;15.60;;
18752;SDS011;9505;50.882;5.350;2023-06-22T09:39:31;47.35;;;18.55;;
18752;SDS011;9505;50.882;5.350;2023-06-22T09:42:00;46.83;;;20.75;;
18752;SDS011;9505;50.882;5.350;2023-06-22T09:44:25;40.80;;;17.40;;
18752;SDS011;9505;50.882;5.350;2023-06-22T09:46:51;53.22;;;21.77;;
18752;SDS011;9505;50.882;5.350;2023-06-22T09:49:17;47.10;;;21.15;;
18752;SDS011;9505;50.882;5.350;2023-06-22T09:51:42;50.40;;;19.40;;
18752;SDS011;9505;50.882;5.350;2023-06-22T09:54:08;53.72;;;21.52;;
18752;SDS011;9505;50.882;5.350;2023-06-22T09:56:34;41.85;;;20.17;;
18752;SDS011;9505;50.882;5.350;2023-06-22T09:58:59;61.00;;;23.67;;
18752;SDS011;9505;50.882;5.350;2023-06-22T10:01:25;56.08;;;22.17;;
18752;SDS011;9505;50.882;5.350;2023-06-22T10:03:52;59.45;;;22.35;;
18752;SDS011;9505;50.882;5.350;2023-06-22T10:06:20;66.07;;;27.73;;
18752;SDS011;9505;50.882;5.350;2023-06-22T10:08:46;55.35;;;23.77;;
18752;SDS011;9505;50.882;5.350;2023-06-22T10:11:13;56.63;;;24.25;;
18752;SDS011;9505;50.882;5.350;2023-06-22T10:13:39;69.15;;;26.77;;
18752;SDS011;9505;50.882;5.350;2023-06-22T10:16:04;67.70;;;27.67;;
18752;SDS011;9505;50.882;5.350;2023-06-22T10:18:30;67.32;;;30.15;;
18752;SDS011;9505;50.882;5.350;2023-06-22T10:20:56;79.38;;;30.95;;
18752;SDS011;9505;50.882;5.350;2023-06-22T10:23:21;75.18;;;31.92;;
18752;SDS011;9505;50.882;5.350;2023-06-22T10:25:47;80.00;;;35.17;;
18752;SDS011;9505;50.882;5.350;2023-06-22T10:28:13;83.53;;;35.35;;
18752;SDS011;9505;50.882;5.350;2023-06-22T10:30:39;90.57;;;38.42;;
18752;SDS011;9505;50.882;5.350;2023-06-22T10:33:08;83.38;;;39.00;;
18752;SDS011;9505;50.882;5.350;2023-06-22T10:35:35;96.63;;;41.00;;
18752;SDS011;9505;50.882;5.350;2023-06-22T10:38:02;100.03;;;42.55;;
18752;SDS011;9505;50.882;5.350;2023-06-22T10:40:28;101.50;;;45.50;;
18752;SDS011;9505;50.882;5.350;2023-06-22T10:42:54;101.25;;;44.97;;
18752;SDS011;9505;50.882;5.350;2023-06-22T10:45:19;111.90;;;48.25;;
18752;SDS011;9505;50.882;5.350;2023-06-22T10:47:45;107.45;;;48.80;;
18752;SDS011;9505;50.882;5.350;2023-06-22T10:50:11;112.55;;;48.83;;
18752;SDS011;9505;50.882;5.350;2023-06-22T10:52:37;114.10;;;48.30;;
18752;SDS011;9505;50.882;5.350;2023-06-22T10:55:03;99.43;;;47.33;;
18752;SDS011;9505;50.882;5.350;2023-06-22T10:57:29;101.40;;;49.30;;
18752;SDS011;9505;50.882;5.350;2023-06-22T10:59:54;107.57;;;49.10;;
18752;SDS011;9505;50.882;5.350;2023-06-22T11:02:20;99.70;;;46.80;;
18752;SDS011;9505;50.882;5.350;2023-06-22T11:04:46;109.70;;;48.17;;
18752;SDS011;9505;50.882;5.350;2023-06-22T11:07:12;107.47;;;49.00;;
18752;SDS011;9505;50.882;5.350;2023-06-22T11:09:38;114.88;;;51.95;;
18752;SDS011;9505;50.882;5.350;2023-06-22T11:12:04;112.72;;;51.08;;
18752;SDS011;9505;50.882;5.350;2023-06-22T11:14:31;104.30;;;46.13;;
18752;SDS011;9505;50.882;5.350;2023-06-22T11:16:59;111.70;;;49.33;;
18752;SDS011;9505;50.882;5.350;2023-06-22T11:19:24;100.55;;;45.70;;
18752;SDS011;9505;50.882;5.350;2023-06-22T11:21:50;90.05;;;41.50;;
18752;SDS011;9505;50.882;5.350;2023-06-22T11:24:16;79.63;;;36.60;;
18752;SDS011;9505;50.882;5.350;2023-06-22T11:26:42;87.78;;;36.55;;
18752;SDS011;9505;50.882;5.350;2023-06-22T11:29:08;81.68;;;36.35;;
18752;SDS011;9505;50.882;5.350;2023-06-22T11:31:34;80.93;;;35.00;;
18752;SDS011;9505;50.882;5.350;2023-06-22T11:34:00;80.60;;;34.92;;
18752;SDS011;9505;50.882;5.350;2023-06-22T11:36:26;60.88;;;31.67;;
18752;SDS011;9505;50.882;5.350;2023-06-22T11:38:52;66.25;;;31.35;;
18752;SDS011;9505;50.882;5.350;2023-06-22T11:41:17;68.20;;;31.20;;
18752;SDS011;9505;50.882;5.350;2023-06-22T11:43:43;60.10;;;29.65;;
18752;SDS011;9505;50.882;5.350;2023-06-22T11:46:09;65.75;;;31.98;;
18752;SDS011;9505;50.882;5.350;2023-06-22T11:48:35;65.78;;;30.80;;
18752;SDS011;9505;50.882;5.350;2023-06-22T11:51:01;56.22;;;31.60;;
18752;SDS011;9505;50.882;5.350;2023-06-22T11:53:28;66.00;;;31.35;;
18752;SDS011;9505;50.882;5.350;2023-06-22T11:55:54;72.32;;;32.63;;
18752;SDS011;9505;50.882;5.350;2023-06-22T11:58:20;71.80;;;34.00;;
18752;SDS011;9505;50.882;5.350;2023-06-22T12:00:46;65.75;;;34.60;;
18752;SDS011;9505;50.882;5.350;2023-06-22T12:03:11;67.65;;;35.05;;
18752;SDS011;9505;50.882;5.350;2023-06-22T12:05:37;86.30;;;36.50;;
18752;SDS011;9505;50.882;5.350;2023-06-22T12:08:04;80.85;;;39.20;;
18752;SDS011;9505;50.882;5.350;2023-06-22T12:10:29;72.25;;;37.80;;
18752;SDS011;9505;50.882;5.350;2023-06-22T12:12:55;75.15;;;39.08;;
18752;SDS011;9505;50.882;5.350;2023-06-22T12:15:22;66.95;;;37.05;;
18752;SDS011;9505;50.882;5.350;2023-06-22T12:17:48;72.85;;;37.50;;
18752;SDS011;9505;50.882;5.350;2023-06-22T12:20:13;74.18;;;37.88;;
18752;SDS011;9505;50.882;5.350;2023-06-22T12:22:40;75.20;;;38.60;;
18752;SDS011;9505;50.882;5.350;2023-06-22T12:25:06;71.95;;;37.58;;
18752;SDS011;9505;50.882;5.350;2023-06-22T12:27:33;76.00;;;37.75;;
18752;SDS011;9505;50.882;5.350;2023-06-22T12:29:59;85.97;;;41.40;;
18752;SDS011;9505;50.882;5.350;2023-06-22T12:32:24;96.00;;;40.83;;
18752;SDS011;9505;50.882;5.350;2023-06-22T12:34:51;97.07;;;43.83;;
18752;SDS011;9505;50.882;5.350;2023-06-22T12:37:16;101.88;;;44.67;;
18752;SDS011;9505;50.882;5.350;2023-06-22T12:39:42;90.03;;;43.42;;
18752;SDS011;9505;50.882;5.350;2023-06-22T12:42:09;101.15;;;45.70;;
18752;SDS011;9505;50.882;5.350;2023-06-22T12:44:36;109.90;;;47.40;;
18752;SDS011;9505;50.882;5.350;2023-06-22T12:47:03;107.22;;;47.60;;
18752;SDS011;9505;50.882;5.350;2023-06-22T12:49:29;110.40;;;49.45;;
18752;SDS011;9505;50.882;5.350;2023-06-22T12:51:54;106.53;;;49.13;;
18752;SDS011;9505;50.882;5.350;2023-06-22T12:54:20;104.80;;;48.03;;
18752;SDS011;9505;50.882;5.350;2023-06-22T12:56:46;104.30;;;47.25;;
18752;SDS011;9505;50.882;5.350;2023-06-22T12:59:12;122.57;;;51.60;;
18752;SDS011;9505;50.882;5.350;2023-06-22T13:01:38;116.18;;;51.42;;
18752;SDS011;9505;50.882;5.350;2023-06-22T13:04:03;121.63;;;51.05;;
18752;SDS011;9505;50.882;5.350;2023-06-22T13:06:30;119.97;;;53.33;;
18752;SDS011;9505;50.882;5.350;2023-06-22T13:08:55;139.00;;;55.78;;
18752;SDS011;9505;50.882;5.350;2023-06-22T13:11:21;127.20;;;53.60;;
18752;SDS011;9505;50.882;5.350;2023-06-22T13:13:47;116.60;;;53.70;;
18752;SDS011;9505;50.882;5.350;2023-06-22T13:16:12;119.22;;;53.58;;
18752;SDS011;9505;50.882;5.350;2023-06-22T13:18:38;119.07;;;53.00;;
18752;SDS011;9505;50.882;5.350;2023-06-22T13:21:04;124.15;;;54.20;;
18752;SDS011;9505;50.882;5.350;2023-06-22T13:23:30;110.53;;;51.22;;
18752;SDS011;9505;50.882;5.350;2023-06-22T13:25:57;102.72;;;48.53;;
18752;SDS011;9505;50.882;5.350;2023-06-22T13:28:23;109.97;;;48.75;;
18752;SDS011;9505;50.882;5.350;2023-06-22T13:30:48;112.10;;;49.67;;
18752;SDS011;9505;50.882;5.350;2023-06-22T13:33:14;134.73;;;51.20;;
18752;SDS011;9505;50.882;5.350;2023-06-22T13:35:40;114.72;;;48.38;;
18752;SDS011;9505;50.882;5.350;2023-06-22T13:38:09;105.57;;;46.95;;
18752;SDS011;9505;50.882;5.350;2023-06-22T13:40:35;108.50;;;47.08;;
18752;SDS011;9505;50.882;5.350;2023-06-22T13:43:03;109.40;;;42.67;;
18752;SDS011;9505;50.882;5.350;2023-06-22T13:45:29;95.47;;;41.55;;
18752;SDS011;9505;50.882;5.350;2023-06-22T13:47:55;94.25;;;40.33;;
18752;SDS011;9505;50.882;5.350;2023-06-22T13:50:20;124.60;;;44.20;;
18752;SDS011;9505;50.882;5.350;2023-06-22T13:52:46;97.43;;;40.88;;
18752;SDS011;9505;50.882;5.350;2023-06-22T13:55:11;105.90;;;41.20;;
18752;SDS011;9505;50.882;5.350;2023-06-22T13:57:39;106.65;;;39.85;;
18752;SDS011;9505;50.882;5.350;2023-06-22T14:00:05;90.25;;;39.95;;
18752;SDS011;9505;50.882;5.350;2023-06-22T14:02:33;98.35;;;41.33;;
18752;SDS011;9505;50.882;5.350;2023-06-22T14:04:58;97.63;;;41.72;;
18752;SDS011;9505;50.882;5.350;2023-06-22T14:07:24;109.22;;;42.42;;
18752;SDS011;9505;50.882;5.350;2023-06-22T14:09:50;98.63;;;42.70;;
18752;SDS011;9505;50.882;5.350;2023-06-22T14:12:15;108.85;;;46.47;;
18752;SDS011;9505;50.882;5.350;2023-06-22T14:14:43;115.47;;;47.70;;
18752;SDS011;9505;50.882;5.350;2023-06-22T14:17:08;116.22;;;47.95;;
18752;SDS011;9505;50.882;5.350;2023-06-22T14:19:35;119.03;;;48.45;;
18752;SDS011;9505;50.882;5.350;2023-06-22T14:22:00;120.30;;;49.45;;
18752;SDS011;9505;50.882;5.350;2023-06-22T14:24:26;128.65;;;51.45;;
18752;SDS011;9505;50.882;5.350;2023-06-22T14:26:53;144.43;;;52.67;;
18752;SDS011;9505;50.882;5.350;2023-06-22T14:29:19;135.85;;;51.92;;
18752;SDS011;9505;50.882;5.350;2023-06-22T14:31:45;147.07;;;53.58;;
18752;SDS011;9505;50.882;5.350;2023-06-22T14:34:12;145.27;;;52.35;;
18752;SDS011;9505;50.882;5.350;2023-06-22T14:36:38;135.57;;;54.92;;
18752;SDS011;9505;50.882;5.350;2023-06-22T14:39:03;147.77;;;56.00;;